Detall de PIREP

Printer-friendly versionPDF version

[2011/05/21 16:26:00]
Flight IATA:CT3234
Pilot Number:042
Company ICAO:CAT
Aircraft Type:F100/F
PAX:40
Aircraft Registration:DA
Departing Airport: LEPA
Destination Airport: LFPG
Alternate Airport:EHRD
Online: VATSIM
Route:MEROS UN853 LUMAS UM976 ETREK UN854 DJL
Flight Level:F250
No Slew and time accel
No pause
Crash detect
Detect pilot in Cockpit between each 30 and 45 minutes
16:26 Zero fuel Weight: 80839 Lbs, Fuel Weight: 23617 Lbs
16:26 VATSIM:LEPA 211600Z 04009KT 350V080 9999 FEW025 SCT050 24/12 Q1017 NOSIG
16:26 VATSIM:LFPG 211600Z 19006G16KT 130V270 CAVOK 24/09 Q1018 NOSIG
16:27 VOICE CATALONIAN
16:54 Parking Brakes off
17:06 Take-off
17:06 Take off Weight: 103492 Lbs
17:06 Wind: 055 @ 010 Knots Heading: 058
17:06 POS N39 33 03 E002 45 08
17:06 Gear Up: 185 Knots
17:06 Flaps:2 at 185 Knots
17:07 Flaps:1 at 174 Knots
17:08 Flaps:0 at 180 Knots
17:21 Wind:038@016 Knots Heading: 048 Ground Speed: 361 Knots Altitude 23602 ft
17:30 TOC
17:30 Fuel Weight: 19454 Lb
17:36 Wind:026@008 Knots Heading: 016 Ground Speed: 449 Knots Altitude 26131 ft
17:51 Wind:053@006 Knots Heading: 345 Ground Speed: 442 Knots Altitude 26893 ft
18:06 Wind:247@007 Knots Heading: 004 Ground Speed: 454 Knots Altitude 28159 ft
18:21 Wind:245@015 Knots Heading: 002 Ground Speed: 438 Knots Altitude 24917 ft
18:21 TOD
18:21 Fuel Weight: 14541 Lb
18:36 Wind:226@008 Knots Heading: 306 Ground Speed: 376 Knots Altitude 15757 ft
18:47 Flaps:1 at 337 Knots
18:51 Wind:264@001 Knots Heading: 274 Ground Speed: 230 Knots Altitude 3070 ft
18:53 Flaps:2 at 185 Knots
18:53 Flaps:3 at 188 Knots
18:54 Gear Down: 209 Knots
18:54 Flaps:4 at 209 Knots
18:58 TouchDown:Rate -198 ft/min Speed: 145 Knots
18:58 VATSIM:LFPG 211830Z 15005KT 100V200 9999 FEW060TCU OVC250 24/11 Q1017 NOSIG
18:58 Land
18:58 Wind:178@005 Knots
18:58 Heading: 242
18:58 Flight Duration: 01:52
18:58 Landing Weight: 91532 Lbs
18:58 POS N49 01 10 E002 30 19
18:58 Parking brakes on
18:58 Block to Block Duration: 02:04
18:58 Final Fuel: 10670 Lbls
18:58 Spent Fuel: 12947 Lbls
18:58 Flight Length: 606 NM
18:58 TOD Land Length: 196 NM

Exportar CSV

Powered by Drupal - Modified by Danger4k